sensor_id;sensor_type;location;lat;lon;timestamp;P1;durP1;ratioP1;P2;durP2;ratioP2
8183;SDS011;4133;48.752;9.088;2024-02-21T00:01:42;1.70;;;1.33;;
8183;SDS011;4133;48.752;9.088;2024-02-21T00:04:08;1.87;;;1.63;;
8183;SDS011;4133;48.752;9.088;2024-02-21T00:06:34;1.23;;;1.17;;
8183;SDS011;4133;48.752;9.088;2024-02-21T00:09:00;1.77;;;1.47;;
8183;SDS011;4133;48.752;9.088;2024-02-21T00:11:26;1.10;;;1.07;;
8183;SDS011;4133;48.752;9.088;2024-02-21T00:13:52;1.47;;;1.37;;
8183;SDS011;4133;48.752;9.088;2024-02-21T00:16:18;5.23;;;1.40;;
8183;SDS011;4133;48.752;9.088;2024-02-21T00:18:45;1.97;;;1.70;;
8183;SDS011;4133;48.752;9.088;2024-02-21T00:21:11;3.90;;;1.87;;
8183;SDS011;4133;48.752;9.088;2024-02-21T00:23:42;5.50;;;1.33;;
8183;SDS011;4133;48.752;9.088;2024-02-21T00:26:08;1.07;;;1.03;;
8183;SDS011;4133;48.752;9.088;2024-02-21T00:28:34;2.60;;;1.93;;
8183;SDS011;4133;48.752;9.088;2024-02-21T00:31:00;2.40;;;1.53;;
8183;SDS011;4133;48.752;9.088;2024-02-21T00:33:26;7.27;;;1.60;;
8183;SDS011;4133;48.752;9.088;2024-02-21T00:35:52;6.07;;;1.57;;
8183;SDS011;4133;48.752;9.088;2024-02-21T00:38:18;3.23;;;1.63;;
8183;SDS011;4133;48.752;9.088;2024-02-21T00:40:44;3.63;;;1.40;;
8183;SDS011;4133;48.752;9.088;2024-02-21T00:43:10;1.67;;;1.50;;
8183;SDS011;4133;48.752;9.088;2024-02-21T00:45:36;2.83;;;1.27;;
8183;SDS011;4133;48.752;9.088;2024-02-21T00:48:02;2.53;;;1.13;;
8183;SDS011;4133;48.752;9.088;2024-02-21T00:50:28;4.50;;;1.53;;
8183;SDS011;4133;48.752;9.088;2024-02-21T00:52:54;1.60;;;1.50;;
8183;SDS011;4133;48.752;9.088;2024-02-21T00:55:20;2.17;;;1.50;;
8183;SDS011;4133;48.752;9.088;2024-02-21T00:57:46;2.00;;;1.70;;
8183;SDS011;4133;48.752;9.088;2024-02-21T01:00:12;1.43;;;1.33;;
8183;SDS011;4133;48.752;9.088;2024-02-21T01:02:38;2.30;;;1.40;;
8183;SDS011;4133;48.752;9.088;2024-02-21T01:05:04;3.40;;;1.30;;
8183;SDS011;4133;48.752;9.088;2024-02-21T01:07:31;2.13;;;1.20;;
8183;SDS011;4133;48.752;9.088;2024-02-21T01:09:57;3.73;;;1.73;;
8183;SDS011;4133;48.752;9.088;2024-02-21T01:12:23;3.33;;;1.13;;
8183;SDS011;4133;48.752;9.088;2024-02-21T01:14:49;1.37;;;1.27;;
8183;SDS011;4133;48.752;9.088;2024-02-21T01:17:15;4.73;;;1.60;;
8183;SDS011;4133;48.752;9.088;2024-02-21T01:19:41;2.23;;;1.10;;
8183;SDS011;4133;48.752;9.088;2024-02-21T01:22:07;2.33;;;1.20;;
8183;SDS011;4133;48.752;9.088;2024-02-21T01:24:33;1.37;;;1.27;;
8183;SDS011;4133;48.752;9.088;2024-02-21T01:26:59;4.83;;;1.47;;
8183;SDS011;4133;48.752;9.088;2024-02-21T01:29:25;3.93;;;1.50;;
8183;SDS011;4133;48.752;9.088;2024-02-21T01:31:51;5.60;;;1.40;;
8183;SDS011;4133;48.752;9.088;2024-02-21T01:34:17;1.93;;;1.33;;
8183;SDS011;4133;48.752;9.088;2024-02-21T01:36:43;1.47;;;1.23;;
8183;SDS011;4133;48.752;9.088;2024-02-21T01:39:09;2.20;;;1.10;;
8183;SDS011;4133;48.752;9.088;2024-02-21T01:41:35;4.97;;;1.50;;
8183;SDS011;4133;48.752;9.088;2024-02-21T01:44:00;2.47;;;1.77;;
8183;SDS011;4133;48.752;9.088;2024-02-21T01:46:26;2.33;;;1.33;;
8183;SDS011;4133;48.752;9.088;2024-02-21T01:48:56;2.87;;;1.63;;
8183;SDS011;4133;48.752;9.088;2024-02-21T01:51:23;3.33;;;1.20;;
8183;SDS011;4133;48.752;9.088;2024-02-21T01:53:50;3.87;;;1.20;;
8183;SDS011;4133;48.752;9.088;2024-02-21T01:56:17;1.70;;;1.23;;
8183;SDS011;4133;48.752;9.088;2024-02-21T01:58:43;3.50;;;1.20;;
8183;SDS011;4133;48.752;9.088;2024-02-21T02:01:10;4.53;;;1.70;;
8183;SDS011;4133;48.752;9.088;2024-02-21T02:03:36;2.93;;;1.10;;
8183;SDS011;4133;48.752;9.088;2024-02-21T02:06:02;2.30;;;1.43;;
8183;SDS011;4133;48.752;9.088;2024-02-21T02:08:28;2.80;;;1.93;;
8183;SDS011;4133;48.752;9.088;2024-02-21T02:10:54;3.13;;;1.13;;
8183;SDS011;4133;48.752;9.088;2024-02-21T02:13:20;3.27;;;1.43;;
8183;SDS011;4133;48.752;9.088;2024-02-21T02:15:47;3.20;;;1.00;;
8183;SDS011;4133;48.752;9.088;2024-02-21T02:18:13;1.03;;;0.93;;
8183;SDS011;4133;48.752;9.088;2024-02-21T02:20:40;2.00;;;1.27;;
8183;SDS011;4133;48.752;9.088;2024-02-21T02:25:38;4.00;;;1.33;;
8183;SDS011;4133;48.752;9.088;2024-02-21T02:28:08;1.57;;;1.23;;
8183;SDS011;4133;48.752;9.088;2024-02-21T02:30:37;2.60;;;1.40;;
8183;SDS011;4133;48.752;9.088;2024-02-21T02:33:03;4.83;;;1.30;;
8183;SDS011;4133;48.752;9.088;2024-02-21T02:35:29;5.10;;;1.10;;
8183;SDS011;4133;48.752;9.088;2024-02-21T02:37:55;2.80;;;1.40;;
8183;SDS011;4133;48.752;9.088;2024-02-21T02:40:21;1.47;;;1.27;;
8183;SDS011;4133;48.752;9.088;2024-02-21T02:42:48;4.60;;;1.50;;
8183;SDS011;4133;48.752;9.088;2024-02-21T02:45:14;1.73;;;1.40;;
8183;SDS011;4133;48.752;9.088;2024-02-21T02:47:40;0.93;;;0.93;;
8183;SDS011;4133;48.752;9.088;2024-02-21T02:50:07;7.33;;;1.33;;
8183;SDS011;4133;48.752;9.088;2024-02-21T02:52:33;2.43;;;1.63;;
8183;SDS011;4133;48.752;9.088;2024-02-21T02:54:59;4.60;;;1.40;;
8183;SDS011;4133;48.752;9.088;2024-02-21T02:57:26;5.13;;;1.37;;
8183;SDS011;4133;48.752;9.088;2024-02-21T02:59:53;2.00;;;1.47;;
8183;SDS011;4133;48.752;9.088;2024-02-21T03:02:19;2.93;;;1.43;;
8183;SDS011;4133;48.752;9.088;2024-02-21T03:04:46;2.83;;;1.37;;
8183;SDS011;4133;48.752;9.088;2024-02-21T03:07:12;4.00;;;1.43;;
8183;SDS011;4133;48.752;9.088;2024-02-21T03:09:38;2.17;;;1.20;;
8183;SDS011;4133;48.752;9.088;2024-02-21T03:12:04;2.07;;;1.37;;
8183;SDS011;4133;48.752;9.088;2024-02-21T03:14:30;1.93;;;1.20;;
8183;SDS011;4133;48.752;9.088;2024-02-21T03:16:57;2.13;;;1.30;;
8183;SDS011;4133;48.752;9.088;2024-02-21T03:19:23;5.30;;;1.60;;
8183;SDS011;4133;48.752;9.088;2024-02-21T03:21:49;2.80;;;1.20;;
8183;SDS011;4133;48.752;9.088;2024-02-21T03:24:16;1.43;;;1.33;;
8183;SDS011;4133;48.752;9.088;2024-02-21T03:26:42;1.43;;;1.20;;
8183;SDS011;4133;48.752;9.088;2024-02-21T03:29:08;2.20;;;1.40;;
8183;SDS011;4133;48.752;9.088;2024-02-21T03:31:34;2.40;;;1.20;;
8183;SDS011;4133;48.752;9.088;2024-02-21T03:34:00;3.27;;;1.43;;
8183;SDS011;4133;48.752;9.088;2024-02-21T03:36:26;2.20;;;1.60;;
8183;SDS011;4133;48.752;9.088;2024-02-21T03:38:53;1.77;;;1.30;;
8183;SDS011;4133;48.752;9.088;2024-02-21T03:41:19;1.23;;;1.13;;
8183;SDS011;4133;48.752;9.088;2024-02-21T03:43:45;3.50;;;1.13;;
8183;SDS011;4133;48.752;9.088;2024-02-21T03:46:11;1.30;;;1.20;;
8183;SDS011;4133;48.752;9.088;2024-02-21T03:48:37;1.37;;;1.27;;
8183;SDS011;4133;48.752;9.088;2024-02-21T03:51:03;3.23;;;1.50;;
8183;SDS011;4133;48.752;9.088;2024-02-21T03:53:29;2.33;;;1.23;;
8183;SDS011;4133;48.752;9.088;2024-02-21T03:55:56;4.90;;;1.53;;
8183;SDS011;4133;48.752;9.088;2024-02-21T03:58:24;2.20;;;1.30;;
8183;SDS011;4133;48.752;9.088;2024-02-21T04:00:50;1.60;;;1.17;;
8183;SDS011;4133;48.752;9.088;2024-02-21T04:03:17;3.33;;;1.53;;
8183;SDS011;4133;48.752;9.088;2024-02-21T04:05:42;1.40;;;1.23;;
8183;SDS011;4133;48.752;9.088;2024-02-21T04:08:09;2.97;;;1.47;;
8183;SDS011;4133;48.752;9.088;2024-02-21T04:10:34;2.63;;;1.37;;
8183;SDS011;4133;48.752;9.088;2024-02-21T04:13:00;4.17;;;1.70;;
8183;SDS011;4133;48.752;9.088;2024-02-21T04:15:26;4.30;;;2.10;;
8183;SDS011;4133;48.752;9.088;2024-02-21T04:17:52;3.70;;;1.47;;
8183;SDS011;4133;48.752;9.088;2024-02-21T04:20:18;1.60;;;1.30;;
8183;SDS011;4133;48.752;9.088;2024-02-21T04:22:45;4.00;;;1.63;;
8183;SDS011;4133;48.752;9.088;2024-02-21T04:25:11;3.80;;;1.50;;
8183;SDS011;4133;48.752;9.088;2024-02-21T04:27:38;7.67;;;1.30;;
8183;SDS011;4133;48.752;9.088;2024-02-21T04:30:04;2.27;;;1.47;;
8183;SDS011;4133;48.752;9.088;2024-02-21T04:32:30;1.10;;;1.10;;
8183;SDS011;4133;48.752;9.088;2024-02-21T04:34:56;1.43;;;1.33;;
8183;SDS011;4133;48.752;9.088;2024-02-21T04:37:22;1.50;;;1.27;;
8183;SDS011;4133;48.752;9.088;2024-02-21T04:39:49;7.40;;;1.50;;
8183;SDS011;4133;48.752;9.088;2024-02-21T04:42:15;5.43;;;1.40;;
8183;SDS011;4133;48.752;9.088;2024-02-21T04:44:41;1.13;;;1.03;;
8183;SDS011;4133;48.752;9.088;2024-02-21T04:47:07;1.83;;;1.50;;
8183;SDS011;4133;48.752;9.088;2024-02-21T04:49:33;7.17;;;1.47;;
8183;SDS011;4133;48.752;9.088;2024-02-21T04:51:59;1.30;;;1.20;;
8183;SDS011;4133;48.752;9.088;2024-02-21T04:54:25;1.47;;;1.20;;
8183;SDS011;4133;48.752;9.088;2024-02-21T04:56:51;2.80;;;1.07;;
8183;SDS011;4133;48.752;9.088;2024-02-21T04:59:18;1.37;;;1.23;;
8183;SDS011;4133;48.752;9.088;2024-02-21T05:01:43;3.83;;;1.40;;
8183;SDS011;4133;48.752;9.088;2024-02-21T05:04:09;1.90;;;1.03;;
8183;SDS011;4133;48.752;9.088;2024-02-21T05:06:39;3.63;;;1.00;;
8183;SDS011;4133;48.752;9.088;2024-02-21T05:09:05;1.00;;;0.90;;
8183;SDS011;4133;48.752;9.088;2024-02-21T05:11:31;1.27;;;0.97;;
8183;SDS011;4133;48.752;9.088;2024-02-21T05:13:57;2.67;;;1.17;;
8183;SDS011;4133;48.752;9.088;2024-02-21T05:16:23;2.10;;;1.03;;
8183;SDS011;4133;48.752;9.088;2024-02-21T05:18:49;2.87;;;1.00;;
8183;SDS011;4133;48.752;9.088;2024-02-21T05:21:15;1.50;;;1.00;;
8183;SDS011;4133;48.752;9.088;2024-02-21T05:23:41;2.83;;;1.50;;
8183;SDS011;4133;48.752;9.088;2024-02-21T05:26:07;5.87;;;1.30;;
8183;SDS011;4133;48.752;9.088;2024-02-21T05:28:33;1.90;;;1.30;;
8183;SDS011;4133;48.752;9.088;2024-02-21T05:30:59;1.43;;;1.33;;
8183;SDS011;4133;48.752;9.088;2024-02-21T05:33:25;2.90;;;1.10;;
8183;SDS011;4133;48.752;9.088;2024-02-21T05:35:51;3.30;;;1.10;;
8183;SDS011;4133;48.752;9.088;2024-02-21T05:38:18;1.77;;;1.27;;
8183;SDS011;4133;48.752;9.088;2024-02-21T05:40:44;1.87;;;1.13;;
8183;SDS011;4133;48.752;9.088;2024-02-21T05:43:10;3.87;;;1.27;;
8183;SDS011;4133;48.752;9.088;2024-02-21T05:45:36;1.13;;;1.07;;
8183;SDS011;4133;48.752;9.088;2024-02-21T05:48:03;1.90;;;1.37;;
8183;SDS011;4133;48.752;9.088;2024-02-21T05:50:29;3.30;;;1.30;;
8183;SDS011;4133;48.752;9.088;2024-02-21T05:52:55;2.30;;;1.00;;
8183;SDS011;4133;48.752;9.088;2024-02-21T05:55:22;2.43;;;1.33;;
8183;SDS011;4133;48.752;9.088;2024-02-21T05:57:48;3.47;;;1.37;;
8183;SDS011;4133;48.752;9.088;2024-02-21T06:00:14;3.37;;;0.90;;
8183;SDS011;4133;48.752;9.088;2024-02-21T06:02:40;2.73;;;0.93;;
8183;SDS011;4133;48.752;9.088;2024-02-21T06:05:06;2.40;;;1.30;;
8183;SDS011;4133;48.752;9.088;2024-02-21T06:07:33;1.07;;;1.00;;
8183;SDS011;4133;48.752;9.088;2024-02-21T06:09:59;4.23;;;1.17;;
8183;SDS011;4133;48.752;9.088;2024-02-21T06:12:25;1.67;;;1.10;;
8183;SDS011;4133;48.752;9.088;2024-02-21T06:14:51;0.80;;;0.67;;
8183;SDS011;4133;48.752;9.088;2024-02-21T06:17:18;2.53;;;1.27;;
8183;SDS011;4133;48.752;9.088;2024-02-21T06:19:44;2.37;;;1.30;;
8183;SDS011;4133;48.752;9.088;2024-02-21T06:22:10;1.20;;;1.10;;
8183;SDS011;4133;48.752;9.088;2024-02-21T06:24:36;2.57;;;1.10;;
8183;SDS011;4133;48.752;9.088;2024-02-21T06:27:03;1.73;;;1.03;;
8183;SDS011;4133;48.752;9.088;2024-02-21T06:29:31;1.10;;;1.00;;
8183;SDS011;4133;48.752;9.088;2024-02-21T06:31:57;2.40;;;1.43;;
8183;SDS011;4133;48.752;9.088;2024-02-21T06:34:23;1.73;;;1.13;;
8183;SDS011;4133;48.752;9.088;2024-02-21T06:36:49;1.43;;;1.07;;
8183;SDS011;4133;48.752;9.088;2024-02-21T06:39:15;1.77;;;1.20;;
8183;SDS011;4133;48.752;9.088;2024-02-21T06:41:41;2.53;;;1.40;;
8183;SDS011;4133;48.752;9.088;2024-02-21T06:44:07;1.17;;;1.00;;
8183;SDS011;4133;48.752;9.088;2024-02-21T06:46:33;4.37;;;1.40;;
8183;SDS011;4133;48.752;9.088;2024-02-21T06:49:00;2.63;;;1.23;;
8183;SDS011;4133;48.752;9.088;2024-02-21T06:51:26;3.30;;;0.90;;
8183;SDS011;4133;48.752;9.088;2024-02-21T06:53:53;1.50;;;1.20;;
8183;SDS011;4133;48.752;9.088;2024-02-21T06:56:19;3.30;;;1.40;;
8183;SDS011;4133;48.752;9.088;2024-02-21T06:58:45;2.50;;;1.40;;
8183;SDS011;4133;48.752;9.088;2024-02-21T07:01:11;1.30;;;1.10;;
8183;SDS011;4133;48.752;9.088;2024-02-21T07:03:37;1.17;;;0.90;;
8183;SDS011;4133;48.752;9.088;2024-02-21T07:06:03;1.37;;;0.80;;
8183;SDS011;4133;48.752;9.088;2024-02-21T07:08:29;3.70;;;1.10;;
8183;SDS011;4133;48.752;9.088;2024-02-21T07:10:55;2.17;;;1.20;;
8183;SDS011;4133;48.752;9.088;2024-02-21T07:13:21;2.87;;;1.17;;
8183;SDS011;4133;48.752;9.088;2024-02-21T07:15:48;2.73;;;1.23;;
8183;SDS011;4133;48.752;9.088;2024-02-21T07:18:14;2.40;;;0.97;;
8183;SDS011;4133;48.752;9.088;2024-02-21T07:20:40;0.80;;;0.80;;
8183;SDS011;4133;48.752;9.088;2024-02-21T07:23:08;1.50;;;1.00;;
8183;SDS011;4133;48.752;9.088;2024-02-21T07:25:34;4.40;;;1.27;;
8183;SDS011;4133;48.752;9.088;2024-02-21T07:28:00;6.07;;;1.13;;
8183;SDS011;4133;48.752;9.088;2024-02-21T07:30:26;4.77;;;1.80;;
8183;SDS011;4133;48.752;9.088;2024-02-21T07:32:52;2.93;;;1.10;;
8183;SDS011;4133;48.752;9.088;2024-02-21T07:35:18;1.60;;;1.00;;
8183;SDS011;4133;48.752;9.088;2024-02-21T07:37:44;0.90;;;0.90;;
8183;SDS011;4133;48.752;9.088;2024-02-21T07:40:14;0.80;;;0.80;;
8183;SDS011;4133;48.752;9.088;2024-02-21T07:42:40;1.77;;;1.00;;
8183;SDS011;4133;48.752;9.088;2024-02-21T07:45:07;1.97;;;1.03;;
8183;SDS011;4133;48.752;9.088;2024-02-21T07:47:33;3.23;;;1.20;;
8183;SDS011;4133;48.752;9.088;2024-02-21T07:49:59;1.77;;;1.30;;
8183;SDS011;4133;48.752;9.088;2024-02-21T07:52:25;5.37;;;1.33;;
8183;SDS011;4133;48.752;9.088;2024-02-21T07:54:51;1.97;;;1.10;;
8183;SDS011;4133;48.752;9.088;2024-02-21T07:57:17;1.17;;;0.87;;
8183;SDS011;4133;48.752;9.088;2024-02-21T07:59:43;1.00;;;1.00;;
8183;SDS011;4133;48.752;9.088;2024-02-21T08:02:09;2.33;;;1.00;;
8183;SDS011;4133;48.752;9.088;2024-02-21T08:04:35;1.57;;;1.33;;
8183;SDS011;4133;48.752;9.088;2024-02-21T08:07:01;2.90;;;1.27;;
8183;SDS011;4133;48.752;9.088;2024-02-21T08:09:29;2.23;;;1.00;;
8183;SDS011;4133;48.752;9.088;2024-02-21T08:11:55;3.67;;;1.10;;
8183;SDS011;4133;48.752;9.088;2024-02-21T08:14:21;3.27;;;1.33;;
8183;SDS011;4133;48.752;9.088;2024-02-21T08:16:47;3.63;;;1.20;;
8183;SDS011;4133;48.752;9.088;2024-02-21T08:19:13;2.90;;;1.40;;
8183;SDS011;4133;48.752;9.088;2024-02-21T08:21:39;1.43;;;1.03;;
8183;SDS011;4133;48.752;9.088;2024-02-21T08:24:05;2.73;;;1.47;;
8183;SDS011;4133;48.752;9.088;2024-02-21T08:26:31;1.07;;;1.03;;
8183;SDS011;4133;48.752;9.088;2024-02-21T08:28:57;2.73;;;1.50;;
8183;SDS011;4133;48.752;9.088;2024-02-21T08:31:24;4.65;;;1.58;;
8183;SDS011;4133;48.752;9.088;2024-02-21T08:33:56;3.97;;;1.40;;
8183;SDS011;4133;48.752;9.088;2024-02-21T08:36:27;2.87;;;0.97;;
8183;SDS011;4133;48.752;9.088;2024-02-21T08:38:53;0.93;;;0.90;;
8183;SDS011;4133;48.752;9.088;2024-02-21T08:41:19;1.23;;;0.87;;
8183;SDS011;4133;48.752;9.088;2024-02-21T08:43:48;2.53;;;1.23;;
8183;SDS011;4133;48.752;9.088;2024-02-21T08:46:14;2.67;;;1.23;;
8183;SDS011;4133;48.752;9.088;2024-02-21T08:48:42;4.20;;;1.20;;
8183;SDS011;4133;48.752;9.088;2024-02-21T08:51:11;1.37;;;1.27;;
8183;SDS011;4133;48.752;9.088;2024-02-21T08:53:37;5.20;;;1.10;;
8183;SDS011;4133;48.752;9.088;2024-02-21T08:56:03;2.47;;;1.40;;
8183;SDS011;4133;48.752;9.088;2024-02-21T08:58:29;1.10;;;0.90;;
8183;SDS011;4133;48.752;9.088;2024-02-21T09:00:56;1.17;;;0.97;;
8183;SDS011;4133;48.752;9.088;2024-02-21T09:03:22;2.30;;;1.17;;
8183;SDS011;4133;48.752;9.088;2024-02-21T09:05:48;2.60;;;1.47;;
8183;SDS011;4133;48.752;9.088;2024-02-21T09:08:14;2.23;;;1.13;;
8183;SDS011;4133;48.752;9.088;2024-02-21T09:10:40;1.40;;;0.90;;
8183;SDS011;4133;48.752;9.088;2024-02-21T09:13:06;1.23;;;0.90;;
8183;SDS011;4133;48.752;9.088;2024-02-21T09:15:35;1.47;;;0.87;;
8183;SDS011;4133;48.752;9.088;2024-02-21T09:18:01;3.60;;;1.13;;
8183;SDS011;4133;48.752;9.088;2024-02-21T09:20:27;0.90;;;0.90;;
8183;SDS011;4133;48.752;9.088;2024-02-21T09:22:54;1.07;;;0.97;;
8183;SDS011;4133;48.752;9.088;2024-02-21T09:25:20;7.43;;;1.57;;
8183;SDS011;4133;48.752;9.088;2024-02-21T09:27:46;2.37;;;1.20;;
8183;SDS011;4133;48.752;9.088;2024-02-21T09:30:12;1.00;;;0.90;;
8183;SDS011;4133;48.752;9.088;2024-02-21T09:32:38;3.80;;;1.10;;
8183;SDS011;4133;48.752;9.088;2024-02-21T09:35:04;1.67;;;1.10;;
8183;SDS011;4133;48.752;9.088;2024-02-21T09:37:31;2.43;;;1.03;;
8183;SDS011;4133;48.752;9.088;2024-02-21T09:39:57;1.50;;;0.87;;
8183;SDS011;4133;48.752;9.088;2024-02-21T09:42:24;2.50;;;1.10;;
8183;SDS011;4133;48.752;9.088;2024-02-21T09:44:54;1.50;;;1.10;;
8183;SDS011;4133;48.752;9.088;2024-02-21T09:50:19;1.63;;;1.10;;
8183;SDS011;4133;48.752;9.088;2024-02-21T09:52:46;1.70;;;0.90;;
8183;SDS011;4133;48.752;9.088;2024-02-21T09:55:12;2.13;;;1.10;;
8183;SDS011;4133;48.752;9.088;2024-02-21T09:57:39;0.77;;;0.77;;
8183;SDS011;4133;48.752;9.088;2024-02-21T10:00:05;2.00;;;1.13;;
8183;SDS011;4133;48.752;9.088;2024-02-21T10:02:34;1.67;;;0.90;;
8183;SDS011;4133;48.752;9.088;2024-02-21T10:05:01;4.33;;;1.03;;
8183;SDS011;4133;48.752;9.088;2024-02-21T10:07:29;0.90;;;0.60;;
8183;SDS011;4133;48.752;9.088;2024-02-21T10:10:03;2.50;;;1.00;;
8183;SDS011;4133;48.752;9.088;2024-02-21T10:12:30;0.83;;;0.83;;
8183;SDS011;4133;48.752;9.088;2024-02-21T10:17:28;2.20;;;1.00;;
8183;SDS011;4133;48.752;9.088;2024-02-21T10:19:54;2.13;;;0.90;;
8183;SDS011;4133;48.752;9.088;2024-02-21T10:22:20;0.80;;;0.80;;
8183;SDS011;4133;48.752;9.088;2024-02-21T10:24:46;1.20;;;0.90;;
8183;SDS011;4133;48.752;9.088;2024-02-21T10:27:12;1.87;;;0.73;;
8183;SDS011;4133;48.752;9.088;2024-02-21T10:29:38;0.97;;;0.60;;
8183;SDS011;4133;48.752;9.088;2024-02-21T10:34:32;1.10;;;0.83;;
8183;SDS011;4133;48.752;9.088;2024-02-21T10:37:01;1.67;;;1.00;;
8183;SDS011;4133;48.752;9.088;2024-02-21T10:39:28;0.90;;;0.70;;
8183;SDS011;4133;48.752;9.088;2024-02-21T10:41:54;2.23;;;0.77;;
8183;SDS011;4133;48.752;9.088;2024-02-21T10:44:22;2.53;;;1.20;;
8183;SDS011;4133;48.752;9.088;2024-02-21T10:46:49;2.27;;;0.90;;
8183;SDS011;4133;48.752;9.088;2024-02-21T10:49:25;1.13;;;1.00;;
8183;SDS011;4133;48.752;9.088;2024-02-21T10:51:54;2.27;;;1.07;;
8183;SDS011;4133;48.752;9.088;2024-02-21T10:57:06;1.77;;;0.90;;
8183;SDS011;4133;48.752;9.088;2024-02-21T10:59:32;2.03;;;1.00;;
8183;SDS011;4133;48.752;9.088;2024-02-21T11:01:59;2.90;;;1.00;;
8183;SDS011;4133;48.752;9.088;2024-02-21T11:04:25;0.80;;;0.80;;
8183;SDS011;4133;48.752;9.088;2024-02-21T11:06:51;4.83;;;0.67;;
8183;SDS011;4133;48.752;9.088;2024-02-21T11:09:18;0.80;;;0.80;;
8183;SDS011;4133;48.752;9.088;2024-02-21T11:11:44;0.70;;;0.70;;
8183;SDS011;4133;48.752;9.088;2024-02-21T11:14:11;0.70;;;0.70;;
8183;SDS011;4133;48.752;9.088;2024-02-21T11:16:39;1.13;;;0.63;;
8183;SDS011;4133;48.752;9.088;2024-02-21T11:19:06;1.60;;;0.70;;
8183;SDS011;4133;48.752;9.088;2024-02-21T11:21:32;4.33;;;0.63;;
8183;SDS011;4133;48.752;9.088;2024-02-21T11:23:59;4.70;;;1.07;;
8183;SDS011;4133;48.752;9.088;2024-02-21T11:26:27;0.60;;;0.60;;
8183;SDS011;4133;48.752;9.088;2024-02-21T11:29:00;1.17;;;0.77;;
8183;SDS011;4133;48.752;9.088;2024-02-21T11:31:44;0.70;;;0.70;;
8183;SDS011;4133;48.752;9.088;2024-02-21T11:34:16;2.50;;;1.00;;
8183;SDS011;4133;48.752;9.088;2024-02-21T11:36:52;1.57;;;0.60;;
8183;SDS011;4133;48.752;9.088;2024-02-21T11:39:19;1.80;;;0.70;;
8183;SDS011;4133;48.752;9.088;2024-02-21T11:42:00;1.30;;;0.90;;
8183;SDS011;4133;48.752;9.088;2024-02-21T11:44:26;1.27;;;0.40;;
8183;SDS011;4133;48.752;9.088;2024-02-21T11:46:52;0.50;;;0.50;;
8183;SDS011;4133;48.752;9.088;2024-02-21T11:49:18;0.93;;;0.80;;
8183;SDS011;4133;48.752;9.088;2024-02-21T11:51:44;1.13;;;0.73;;
8183;SDS011;4133;48.752;9.088;2024-02-21T11:54:10;0.70;;;0.70;;
8183;SDS011;4133;48.752;9.088;2024-02-21T11:56:41;1.80;;;0.87;;
8183;SDS011;4133;48.752;9.088;2024-02-21T11:59:08;1.07;;;0.80;;
8183;SDS011;4133;48.752;9.088;2024-02-21T12:01:34;0.93;;;0.70;;
8183;SDS011;4133;48.752;9.088;2024-02-21T12:04:00;1.10;;;0.83;;
8183;SDS011;4133;48.752;9.088;2024-02-21T12:06:26;0.60;;;0.60;;
8183;SDS011;4133;48.752;9.088;2024-02-21T12:08:52;0.50;;;0.50;;
8183;SDS011;4133;48.752;9.088;2024-02-21T12:11:23;0.87;;;0.50;;
8183;SDS011;4133;48.752;9.088;2024-02-21T12:13:59;0.83;;;0.63;;
8183;SDS011;4133;48.752;9.088;2024-02-21T12:16:26;0.97;;;0.77;;
8183;SDS011;4133;48.752;9.088;2024-02-21T12:18:53;2.00;;;0.70;;
8183;SDS011;4133;48.752;9.088;2024-02-21T12:21:19;0.67;;;0.67;;
8183;SDS011;4133;48.752;9.088;2024-02-21T12:23:49;1.37;;;0.70;;
8183;SDS011;4133;48.752;9.088;2024-02-21T12:26:15;1.03;;;1.00;;
8183;SDS011;4133;48.752;9.088;2024-02-21T12:28:41;2.30;;;0.83;;
8183;SDS011;4133;48.752;9.088;2024-02-21T12:31:06;1.60;;;0.70;;
8183;SDS011;4133;48.752;9.088;2024-02-21T12:33:32;0.63;;;0.63;;
8183;SDS011;4133;48.752;9.088;2024-02-21T12:36:00;1.73;;;0.90;;
8183;SDS011;4133;48.752;9.088;2024-02-21T12:38:26;1.80;;;0.80;;
8183;SDS011;4133;48.752;9.088;2024-02-21T12:40:52;1.50;;;0.63;;
8183;SDS011;4133;48.752;9.088;2024-02-21T12:43:18;0.53;;;0.50;;
8183;SDS011;4133;48.752;9.088;2024-02-21T12:45:44;0.60;;;0.60;;
8183;SDS011;4133;48.752;9.088;2024-02-21T12:48:10;1.23;;;0.80;;
8183;SDS011;4133;48.752;9.088;2024-02-21T12:50:39;0.63;;;0.60;;
8183;SDS011;4133;48.752;9.088;2024-02-21T12:53:05;0.53;;;0.50;;
8183;SDS011;4133;48.752;9.088;2024-02-21T12:55:32;0.50;;;0.50;;
8183;SDS011;4133;48.752;9.088;2024-02-21T12:58:02;1.10;;;0.70;;
8183;SDS011;4133;48.752;9.088;2024-02-21T13:00:30;2.67;;;0.77;;
8183;SDS011;4133;48.752;9.088;2024-02-21T13:02:57;0.80;;;0.80;;
8183;SDS011;4133;48.752;9.088;2024-02-21T13:05:23;1.23;;;0.67;;
8183;SDS011;4133;48.752;9.088;2024-02-21T13:07:49;0.50;;;0.50;;
8183;SDS011;4133;48.752;9.088;2024-02-21T13:10:15;0.50;;;0.50;;
8183;SDS011;4133;48.752;9.088;2024-02-21T13:12:41;1.87;;;0.77;;
8183;SDS011;4133;48.752;9.088;2024-02-21T13:15:07;1.02;;;0.70;;
8183;SDS011;4133;48.752;9.088;2024-02-21T13:17:36;0.80;;;0.55;;
8183;SDS011;4133;48.752;9.088;2024-02-21T13:20:02;1.27;;;0.70;;
8183;SDS011;4133;48.752;9.088;2024-02-21T13:22:29;1.03;;;0.77;;
8183;SDS011;4133;48.752;9.088;2024-02-21T13:24:55;0.70;;;0.70;;
8183;SDS011;4133;48.752;9.088;2024-02-21T13:27:21;0.90;;;0.43;;
8183;SDS011;4133;48.752;9.088;2024-02-21T13:29:47;1.93;;;0.67;;
8183;SDS011;4133;48.752;9.088;2024-02-21T13:32:13;0.70;;;0.70;;
8183;SDS011;4133;48.752;9.088;2024-02-21T13:34:40;1.65;;;0.50;;
8183;SDS011;4133;48.752;9.088;2024-02-21T13:37:07;0.90;;;0.50;;
8183;SDS011;4133;48.752;9.088;2024-02-21T13:39:34;0.93;;;0.60;;
8183;SDS011;4133;48.752;9.088;2024-02-21T13:42:01;1.17;;;0.80;;
8183;SDS011;4133;48.752;9.088;2024-02-21T13:44:27;1.60;;;0.90;;
8183;SDS011;4133;48.752;9.088;2024-02-21T13:46:53;1.88;;;1.05;;
8183;SDS011;4133;48.752;9.088;2024-02-21T13:49:20;2.97;;;0.80;;
8183;SDS011;4133;48.752;9.088;2024-02-21T13:51:46;1.30;;;0.60;;
8183;SDS011;4133;48.752;9.088;2024-02-21T13:54:13;0.57;;;0.57;;
8183;SDS011;4133;48.752;9.088;2024-02-21T13:56:42;1.63;;;0.50;;
8183;SDS011;4133;48.752;9.088;2024-02-21T13:59:08;1.00;;;0.70;;
8183;SDS011;4133;48.752;9.088;2024-02-21T14:01:34;0.77;;;0.50;;
8183;SDS011;4133;48.752;9.088;2024-02-21T14:04:00;0.77;;;0.43;;
8183;SDS011;4133;48.752;9.088;2024-02-21T14:06:26;1.10;;;0.60;;
8183;SDS011;4133;48.752;9.088;2024-02-21T14:08:53;1.03;;;0.67;;
8183;SDS011;4133;48.752;9.088;2024-02-21T14:11:19;0.50;;;0.50;;
8183;SDS011;4133;48.752;9.088;2024-02-21T14:13:45;2.67;;;0.50;;
8183;SDS011;4133;48.752;9.088;2024-02-21T14:16:11;0.50;;;0.50;;
8183;SDS011;4133;48.752;9.088;2024-02-21T14:18:38;0.60;;;0.57;;
8183;SDS011;4133;48.752;9.088;2024-02-21T14:21:06;0.40;;;0.40;;
8183;SDS011;4133;48.752;9.088;2024-02-21T14:23:32;0.73;;;0.70;;
8183;SDS011;4133;48.752;9.088;2024-02-21T14:25:58;1.00;;;0.80;;
8183;SDS011;4133;48.752;9.088;2024-02-21T14:28:24;1.00;;;0.90;;
8183;SDS011;4133;48.752;9.088;2024-02-21T14:30:50;1.30;;;0.40;;
8183;SDS011;4133;48.752;9.088;2024-02-21T14:33:19;1.00;;;0.50;;
8183;SDS011;4133;48.752;9.088;2024-02-21T14:35:45;0.60;;;0.60;;
8183;SDS011;4133;48.752;9.088;2024-02-21T14:38:11;0.60;;;0.60;;
8183;SDS011;4133;48.752;9.088;2024-02-21T14:40:36;0.40;;;0.40;;
8183;SDS011;4133;48.752;9.088;2024-02-21T14:43:03;0.60;;;0.60;;
8183;SDS011;4133;48.752;9.088;2024-02-21T14:45:29;0.50;;;0.50;;
8183;SDS011;4133;48.752;9.088;2024-02-21T14:47:55;0.57;;;0.57;;
8183;SDS011;4133;48.752;9.088;2024-02-21T14:50:21;0.53;;;0.53;;
8183;SDS011;4133;48.752;9.088;2024-02-21T14:52:48;1.47;;;0.63;;
8183;SDS011;4133;48.752;9.088;2024-02-21T14:55:17;2.73;;;0.47;;
8183;SDS011;4133;48.752;9.088;2024-02-21T14:57:44;0.43;;;0.40;;
8183;SDS011;4133;48.752;9.088;2024-02-21T15:00:10;2.73;;;0.50;;
8183;SDS011;4133;48.752;9.088;2024-02-21T15:02:36;0.50;;;0.50;;
8183;SDS011;4133;48.752;9.088;2024-02-21T15:05:02;0.67;;;0.57;;
8183;SDS011;4133;48.752;9.088;2024-02-21T15:07:28;1.03;;;0.60;;
8183;SDS011;4133;48.752;9.088;2024-02-21T15:09:54;0.60;;;0.60;;
8183;SDS011;4133;48.752;9.088;2024-02-21T15:12:21;0.50;;;0.50;;
8183;SDS011;4133;48.752;9.088;2024-02-21T15:14:48;2.70;;;0.57;;
8183;SDS011;4133;48.752;9.088;2024-02-21T15:17:14;0.80;;;0.63;;
8183;SDS011;4133;48.752;9.088;2024-02-21T15:19:40;4.77;;;0.70;;
8183;SDS011;4133;48.752;9.088;2024-02-21T15:22:13;0.80;;;0.80;;
8183;SDS011;4133;48.752;9.088;2024-02-21T15:24:39;0.53;;;0.53;;